Time;durP1;ratioP1;P1;durP2;ratioP2;P2;SDS_P1;SDS_P2;PMS_P1;PMS_P2;Temp;Humidity;BMP_temperature;BMP_pressure;BME280_temperature;BME280_humidity;BME280_pressure;Samples;Min_cycle;Max_cycle;Signal;HPM_P1;HPM_P2
2023/09/14 00:01:23;;;;;;;7.50;4.20;;;19.10;98.00;;;;;;5014023;28;21271;-67
2023/09/14 00:03:52;;;;;;;5.83;3.73;;;19.00;98.00;;;;;;5014054;28;20458;-69
2023/09/14 00:06:19;;;;;;;9.20;4.30;;;18.80;98.00;;;;;;5013967;28;20885;-68
2023/09/14 00:08:47;;;;;;;8.97;4.63;;;18.80;98.00;;;;;;5013885;28;20792;-68
2023/09/14 00:11:16;;;;;;;6.83;4.03;;;18.70;98.00;;;;;;5013631;28;20781;-69
2023/09/14 00:13:43;;;;;;;6.77;4.37;;;18.70;98.00;;;;;;5014046;28;20458;-67
2023/09/14 00:16:10;;;;;;;7.90;4.03;;;18.60;98.00;;;;;;5013694;28;20842;-68
2023/09/14 00:18:37;;;;;;;7.43;4.20;;;18.70;98.00;;;;;;5013725;28;20479;-68
2023/09/14 00:21:04;;;;;;;7.13;4.30;;;18.80;98.00;;;;;;5013717;28;20447;-67
2023/09/14 00:23:31;;;;;;;8.97;4.03;;;18.80;98.00;;;;;;5013730;28;20467;-67
2023/09/14 00:25:58;;;;;;;6.60;4.40;;;19.00;98.00;;;;;;5012883;28;20462;-68
2023/09/14 00:28:27;;;;;;;6.93;4.10;;;19.30;98.00;;;;;;5013807;28;20838;-68
2023/09/14 00:30:54;;;;;;;8.33;4.20;;;19.30;98.00;;;;;;5013610;28;20587;-67
2023/09/14 00:33:23;;;;;;;8.03;4.90;;;19.40;98.00;;;;;;5013586;28;20462;-66
2023/09/14 00:35:53;;;;;;;6.13;4.13;;;19.40;98.00;;;;;;5013234;28;20459;-68
2023/09/14 00:38:22;;;;;;;10.33;5.37;;;19.40;98.00;;;;;;5013572;28;20514;-66
2023/09/14 00:40:50;;;;;;;8.23;4.63;;;19.40;98.00;;;;;;5013001;28;20460;-66
2023/09/14 00:43:17;;;;;;;11.40;5.70;;;19.40;98.00;;;;;;5012988;28;20456;-67
2023/09/14 00:45:46;;;;;;;9.07;4.50;;;19.30;98.00;;;;;;5012978;28;20455;-66
2023/09/14 00:48:13;;;;;;;9.67;4.87;;;19.30;98.00;;;;;;5013108;28;20456;-67
2023/09/14 00:50:42;;;;;;;9.43;5.00;;;19.40;98.00;;;;;;5012656;28;20447;-66
2023/09/14 00:53:13;;;;;;;9.13;4.70;;;19.40;98.00;;;;;;5012843;28;20455;-66
2023/09/14 00:55:42;;;;;;;6.77;4.23;;;19.40;98.00;;;;;;5012662;28;20872;-67
2023/09/14 00:58:14;;;;;;;10.57;4.93;;;19.40;98.00;;;;;;5012844;28;20484;-67
2023/09/14 01:00:42;;;;;;;9.90;4.67;;;19.40;98.00;;;;;;5012603;28;20949;-66
2023/09/14 01:03:14;;;;;;;7.80;4.57;;;19.50;98.00;;;;;;5012754;28;20455;-67
2023/09/14 01:05:43;;;;;;;9.50;5.10;;;19.50;98.00;;;;;;5012786;28;20476;-67
2023/09/14 01:08:11;;;;;;;6.40;4.13;;;19.40;98.00;;;;;;5012713;28;20443;-66
2023/09/14 01:10:38;;;;;;;10.60;5.10;;;19.40;98.00;;;;;;5012370;28;20455;-67
2023/09/14 01:13:06;;;;;;;11.33;5.13;;;19.30;98.00;;;;;;5012565;28;20457;-68
2023/09/14 01:15:38;;;;;;;8.90;4.80;;;19.30;98.00;;;;;;5012600;28;20510;-66
2023/09/14 01:18:13;;;;;;;8.93;4.80;;;19.30;98.00;;;;;;5012522;28;20490;-66
2023/09/14 01:21:08;;;;;;;6.80;4.10;;;19.20;98.00;;;;;;5012441;28;20454;-67
2023/09/14 01:23:42;;;;;;;8.67;4.57;;;19.20;98.00;;;;;;4994873;28;20461;-67
2023/09/14 01:26:12;;;;;;;9.77;5.03;;;19.30;98.00;;;;;;5012427;28;21104;-67
2023/09/14 01:28:39;;;;;;;9.30;5.00;;;19.30;98.00;;;;;;5012376;28;20513;-66
2023/09/14 01:31:06;;;;;;;10.07;5.00;;;19.40;98.00;;;;;;5012515;28;20923;-67
2023/09/14 01:33:33;;;;;;;10.60;5.10;;;19.50;98.00;;;;;;5012319;28;20451;-66
2023/09/14 01:36:07;;;;;;;9.70;4.70;;;19.50;98.00;;;;;;5012513;28;20823;-66
2023/09/14 01:38:34;;;;;;;8.37;4.80;;;19.40;98.00;;;;;;5011523;28;20480;-67
2023/09/14 01:41:05;;;;;;;10.87;5.13;;;19.30;98.00;;;;;;5011937;28;20463;-67
2023/09/14 01:43:34;;;;;;;12.90;5.27;;;19.40;98.00;;;;;;5012324;28;20542;-68
2023/09/14 01:46:03;;;;;;;10.50;5.33;;;19.30;98.00;;;;;;5012388;28;20455;-67
2023/09/14 01:48:30;;;;;;;9.93;5.03;;;19.30;98.00;;;;;;5012487;28;20487;-68
2023/09/14 01:50:57;;;;;;;7.50;4.43;;;19.40;98.00;;;;;;5012163;28;20443;-67
2023/09/14 01:53:25;;;;;;;8.37;4.80;;;19.30;98.00;;;;;;5012252;28;20509;-67
2023/09/14 01:55:52;;;;;;;8.10;4.70;;;19.20;98.00;;;;;;5012038;28;20506;-67
2023/09/14 01:58:19;;;;;;;9.57;5.00;;;19.20;98.00;;;;;;5012328;28;20846;-67
2023/09/14 02:00:47;;;;;;;10.47;5.23;;;19.20;98.00;;;;;;5012084;28;20463;-67
2023/09/14 02:03:16;;;;;;;8.80;5.00;;;19.30;98.00;;;;;;5011987;28;20450;-67
2023/09/14 02:05:43;;;;;;;8.00;4.67;;;19.20;98.00;;;;;;5012074;28;20471;-66
2023/09/14 02:08:10;;;;;;;7.87;4.57;;;19.20;98.00;;;;;;5012279;28;20459;-66
2023/09/14 02:10:37;;;;;;;7.93;4.40;;;19.30;98.00;;;;;;5012195;28;20510;-67
2023/09/14 02:13:04;;;;;;;9.30;5.40;;;19.30;98.00;;;;;;5011934;28;20881;-66
2023/09/14 02:15:31;;;;;;;12.70;5.00;;;19.40;98.00;;;;;;5012000;28;20961;-66
2023/09/14 02:17:59;;;;;;;8.07;4.90;;;19.40;98.00;;;;;;5011746;28;20456;-67
2023/09/14 02:20:26;;;;;;;9.30;5.00;;;19.60;98.00;;;;;;5011533;28;20462;-66
2023/09/14 02:22:53;;;;;;;9.30;5.27;;;19.60;98.00;;;;;;5011727;28;20452;-67
2023/09/14 02:25:20;;;;;;;8.70;4.70;;;19.60;98.00;;;;;;5011937;28;20931;-66
2023/09/14 02:27:47;;;;;;;8.13;4.70;;;19.60;98.00;;;;;;5011806;28;21012;-66
2023/09/14 02:30:15;;;;;;;8.57;4.97;;;19.50;98.00;;;;;;5011528;28;20471;-66
2023/09/14 02:32:42;;;;;;;9.40;5.13;;;19.40;98.00;;;;;;5011444;28;20455;-66
2023/09/14 02:35:10;;;;;;;9.80;5.20;;;19.40;98.00;;;;;;5011808;28;20960;-68
2023/09/14 02:37:37;;;;;;;9.70;5.10;;;19.30;98.00;;;;;;5011785;28;20452;-67
2023/09/14 02:40:06;;;;;;;10.50;5.30;;;19.20;98.00;;;;;;5011323;28;20498;-66
2023/09/14 02:42:36;;;;;;;13.13;5.70;;;19.10;98.00;;;;;;5011774;28;20566;-66
2023/09/14 02:45:04;;;;;;;9.30;5.33;;;19.10;98.00;;;;;;5011817;28;20447;-66
2023/09/14 02:47:31;;;;;;;11.43;5.60;;;19.00;98.00;;;;;;5011694;28;20466;-66
2023/09/14 02:49:58;;;;;;;14.10;5.40;;;18.90;98.00;;;;;;5013080;28;20455;-67
2023/09/14 02:52:27;;;;;;;10.60;6.10;;;18.80;98.00;;;;;;5015139;28;20767;-66
2023/09/14 02:54:54;;;;;;;11.80;6.07;;;18.90;98.00;;;;;;5014881;28;20459;-66
2023/09/14 02:57:21;;;;;;;10.43;5.40;;;18.70;98.00;;;;;;5015131;28;20459;-68
2023/09/14 02:59:48;;;;;;;10.63;5.80;;;18.70;98.00;;;;;;5014780;28;20830;-66
2023/09/14 03:02:15;;;;;;;13.43;5.60;;;18.60;98.00;;;;;;5015009;28;20984;-67
2023/09/14 03:04:42;;;;;;;11.13;5.67;;;18.80;98.00;;;;;;5014835;28;20448;-67
2023/09/14 03:07:10;;;;;;;11.87;6.23;;;18.80;98.00;;;;;;5014816;28;20498;-67
2023/09/14 03:09:38;;;;;;;8.70;4.97;;;18.70;98.00;;;;;;5014728;28;20460;-67
2023/09/14 03:12:06;;;;;;;11.20;5.50;;;18.60;98.00;;;;;;5014589;28;20448;-67
2023/09/14 03:14:33;;;;;;;11.03;5.53;;;18.60;98.00;;;;;;5014655;28;21004;-66
2023/09/14 03:17:01;;;;;;;11.10;5.50;;;18.50;98.00;;;;;;5013641;28;21128;-66
2023/09/14 03:19:28;;;;;;;8.23;5.20;;;18.60;98.00;;;;;;5014602;28;20510;-66
2023/09/14 03:21:55;;;;;;;10.33;5.70;;;18.70;98.00;;;;;;5014564;28;20462;-66
2023/09/14 03:24:22;;;;;;;9.70;5.43;;;18.80;98.00;;;;;;5014712;28;20546;-66
2023/09/14 03:26:51;;;;;;;10.10;5.40;;;18.90;98.00;;;;;;5014521;28;20988;-66
2023/09/14 03:29:18;;;;;;;13.90;5.90;;;18.90;98.00;;;;;;5014779;28;20451;-66
2023/09/14 03:31:45;;;;;;;10.00;5.40;;;19.00;98.00;;;;;;5014518;28;20958;-66
2023/09/14 03:34:12;;;;;;;9.10;5.30;;;19.00;98.00;;;;;;5014545;28;20448;-67
2023/09/14 03:36:39;;;;;;;10.20;5.90;;;19.10;98.00;;;;;;5014307;28;20452;-67
2023/09/14 03:39:06;;;;;;;11.37;5.00;;;19.00;98.00;;;;;;5014463;28;20514;-66
2023/09/14 03:41:36;;;;;;;10.50;5.40;;;19.10;98.00;;;;;;5014561;28;20550;-66
2023/09/14 03:44:05;;;;;;;9.83;5.50;;;19.00;98.00;;;;;;5014467;28;20460;-66
2023/09/14 03:46:33;;;;;;;9.60;5.73;;;18.90;98.00;;;;;;5014640;28;20456;-66
2023/09/14 03:49:02;;;;;;;10.10;5.90;;;18.80;98.00;;;;;;5014447;28;20471;-66
2023/09/14 03:51:29;;;;;;;10.40;5.60;;;18.60;98.00;;;;;;5014515;28;20555;-66
2023/09/14 03:53:57;;;;;;;10.03;5.57;;;18.50;98.00;;;;;;5014534;28;20518;-67
2023/09/14 03:56:24;;;;;;;13.00;6.10;;;18.60;98.00;;;;;;5013963;28;20459;-66
2023/09/14 03:58:51;;;;;;;10.33;5.70;;;18.40;98.00;;;;;;5014287;28;20514;-67
2023/09/14 04:01:20;;;;;;;8.83;5.00;;;18.40;98.00;;;;;;5012839;28;20472;-65
2023/09/14 04:03:47;;;;;;;10.10;5.33;;;18.40;98.00;;;;;;5013768;28;20949;-66
2023/09/14 04:06:14;;;;;;;12.00;5.83;;;18.40;98.00;;;;;;5013765;28;20452;-67
2023/09/14 04:08:42;;;;;;;15.13;5.87;;;18.50;98.00;;;;;;5013791;28;20452;-66
2023/09/14 04:11:10;;;;;;;10.83;5.67;;;18.30;98.00;;;;;;5013687;28;20455;-67
2023/09/14 04:13:37;;;;;;;10.63;5.90;;;18.20;98.00;;;;;;5013502;28;20459;-67
2023/09/14 04:16:06;;;;;;;9.57;5.00;;;18.20;98.00;;;;;;5013520;28;20551;-66
2023/09/14 04:18:36;;;;;;;10.37;5.90;;;18.20;98.00;;;;;;5013594;28;20456;-66
2023/09/14 04:21:05;;;;;;;14.03;5.90;;;18.10;98.00;;;;;;5013608;28;20586;-67
2023/09/14 04:23:32;;;;;;;10.70;5.70;;;18.10;98.00;;;;;;5013308;28;20451;-66
2023/09/14 04:26:00;;;;;;;15.73;5.80;;;18.10;98.00;;;;;;5013301;28;20451;-67
2023/09/14 04:28:27;;;;;;;10.33;5.50;;;18.30;98.00;;;;;;5013482;28;20456;-66
2023/09/14 04:30:58;;;;;;;10.17;5.80;;;18.30;98.00;;;;;;5013259;28;20463;-67
2023/09/14 04:33:29;;;;;;;9.53;5.20;;;18.40;98.00;;;;;;5012955;28;20459;-66
2023/09/14 04:36:01;;;;;;;9.83;5.53;;;18.50;98.00;;;;;;5013065;28;20452;-66
2023/09/14 04:38:28;;;;;;;7.83;4.80;;;18.50;98.00;;;;;;5013020;28;20482;-67
2023/09/14 04:40:55;;;;;;;8.67;5.23;;;18.60;98.00;;;;;;5012269;28;20451;-66
2023/09/14 04:43:24;;;;;;;10.83;5.60;;;18.60;98.00;;;;;;5012597;28;20447;-66
2023/09/14 04:45:51;;;;;;;9.80;4.83;;;18.50;98.00;;;;;;5012567;28;20484;-66
2023/09/14 04:48:18;;;;;;;9.30;5.23;;;18.60;98.00;;;;;;5012495;28;20505;-66
2023/09/14 04:50:45;;;;;;;9.10;4.63;;;18.40;98.00;;;;;;5012042;28;20456;-66
2023/09/14 04:53:13;;;;;;;10.80;5.00;;;18.40;98.00;;;;;;5012451;28;20904;-66
2023/09/14 04:55:40;;;;;;;10.83;5.60;;;18.30;98.00;;;;;;5013140;28;20452;-66
2023/09/14 04:58:08;;;;;;;7.60;4.63;;;18.20;98.00;;;;;;5012906;28;20451;-67
2023/09/14 05:00:36;;;;;;;9.67;5.30;;;18.20;98.00;;;;;;5012628;28;21207;-66
2023/09/14 05:03:05;;;;;;;10.20;4.97;;;18.20;98.00;;;;;;5013054;28;20542;-66
2023/09/14 05:05:32;;;;;;;10.30;4.90;;;18.10;98.00;;;;;;5012851;28;20451;-67
2023/09/14 05:07:59;;;;;;;10.43;5.27;;;18.20;98.00;;;;;;5012771;28;20527;-67
2023/09/14 05:10:28;;;;;;;10.50;5.17;;;18.20;98.00;;;;;;5012831;28;20559;-66
2023/09/14 05:12:55;;;;;;;9.27;4.97;;;18.30;98.00;;;;;;5012410;28;20454;-67
2023/09/14 05:15:22;;;;;;;9.97;5.20;;;18.30;98.00;;;;;;5012828;28;20459;-66
2023/09/14 05:17:50;;;;;;;9.20;4.70;;;18.20;98.00;;;;;;5012602;28;20464;-66
2023/09/14 05:20:17;;;;;;;8.80;4.60;;;18.20;98.00;;;;;;5012472;28;20495;-67
2023/09/14 05:22:44;;;;;;;7.43;4.70;;;18.20;98.00;;;;;;5012604;28;20861;-66
2023/09/14 05:25:11;;;;;;;7.90;4.57;;;18.20;98.00;;;;;;5012165;28;20479;-66
2023/09/14 05:27:41;;;;;;;11.37;5.20;;;18.20;98.00;;;;;;5012481;28;20802;-66
2023/09/14 05:30:09;;;;;;;8.77;4.43;;;18.10;98.00;;;;;;5012591;28;20455;-66
2023/09/14 05:32:38;;;;;;;7.50;4.33;;;18.10;98.00;;;;;;5012896;28;20546;-68
2023/09/14 05:35:06;;;;;;;8.30;4.60;;;18.10;98.00;;;;;;5012915;28;20471;-67
2023/09/14 05:37:36;;;;;;;8.83;4.77;;;18.30;98.00;;;;;;5012649;28;20475;-66
2023/09/14 05:40:09;;;;;;;8.77;4.60;;;18.30;98.00;;;;;;5012141;28;20582;-66
2023/09/14 05:42:38;;;;;;;8.70;4.80;;;18.30;98.00;;;;;;5012617;28;20930;-67
2023/09/14 05:45:08;;;;;;;10.53;4.93;;;18.40;98.00;;;;;;5010809;28;20494;-66
2023/09/14 05:47:36;;;;;;;7.00;4.40;;;18.40;98.00;;;;;;5012230;28;20458;-66
2023/09/14 05:50:04;;;;;;;8.93;4.47;;;18.30;98.00;;;;;;5012165;28;20934;-66
2023/09/14 05:52:31;;;;;;;6.53;3.90;;;18.20;98.00;;;;;;5012086;28;20873;-67
2023/09/14 05:54:59;;;;;;;6.50;4.43;;;18.30;98.00;;;;;;5011859;28;20550;-67
2023/09/14 05:57:26;;;;;;;8.20;4.77;;;18.30;98.00;;;;;;5011917;28;20455;-66
2023/09/14 05:59:53;;;;;;;8.43;4.70;;;18.30;98.00;;;;;;5012050;28;20491;-66
2023/09/14 06:02:22;;;;;;;7.33;4.47;;;18.30;98.00;;;;;;5012047;28;20458;-66
2023/09/14 06:04:50;;;;;;;6.73;4.00;;;18.40;98.00;;;;;;5011754;28;20451;-67
2023/09/14 06:07:17;;;;;;;7.20;4.53;;;18.40;98.00;;;;;;5011971;28;20490;-67
2023/09/14 06:09:44;;;;;;;9.27;4.13;;;18.30;98.00;;;;;;5011977;28;20451;-67
2023/09/14 06:12:11;;;;;;;10.47;4.90;;;18.40;98.00;;;;;;5012217;28;20448;-66
2023/09/14 06:14:38;;;;;;;7.77;4.53;;;18.20;98.00;;;;;;5011995;28;20470;-67
2023/09/14 06:17:05;;;;;;;7.43;4.50;;;18.10;98.00;;;;;;5011786;28;20517;-67
2023/09/14 06:19:34;;;;;;;12.20;4.60;;;18.10;98.00;;;;;;5011860;28;20561;-63
2023/09/14 06:22:01;;;;;;;9.07;4.57;;;18.00;98.00;;;;;;5011883;28;20455;-64
2023/09/14 06:24:29;;;;;;;6.93;4.17;;;18.10;98.00;;;;;;5028046;28;20458;-63
2023/09/14 06:26:56;;;;;;;9.80;4.40;;;18.20;98.00;;;;;;5015487;28;20452;-63
2023/09/14 06:29:23;;;;;;;7.97;4.13;;;18.30;98.00;;;;;;5015693;28;20946;-63
2023/09/14 06:31:51;;;;;;;6.70;3.73;;;18.30;98.00;;;;;;5015590;28;20833;-63
2023/09/14 06:34:18;;;;;;;7.40;4.07;;;18.20;98.00;;;;;;5015593;28;20451;-68
2023/09/14 06:36:46;;;;;;;5.93;3.30;;;18.40;98.00;;;;;;5015552;28;20949;-69
2023/09/14 06:39:16;;;;;;;6.67;4.03;;;18.90;98.00;;;;;;5015581;28;20455;-68
2023/09/14 06:41:46;;;;;;;5.73;3.50;;;19.40;98.00;;;;;;5015279;28;20479;-69
2023/09/14 06:44:14;;;;;;;5.20;3.30;;;19.90;98.00;;;;;;5015647;28;20455;-69
2023/09/14 06:46:41;;;;;;;5.77;3.43;;;20.30;98.00;;;;;;5015424;28;20451;-69
2023/09/14 06:49:08;;;;;;;6.27;3.17;;;20.60;98.00;;;;;;5030513;28;20455;-69
2023/09/14 06:51:43;;;;;;;4.80;3.37;;;20.80;98.00;;;;;;5015350;28;20513;-68
2023/09/14 06:54:12;;;;;;;6.87;4.00;;;20.80;98.00;;;;;;5015343;28;20447;-70
2023/09/14 06:56:40;;;;;;;6.20;3.87;;;20.80;98.00;;;;;;5015233;28;20462;-69
2023/09/14 06:59:07;;;;;;;4.57;3.17;;;21.00;98.00;;;;;;5030455;28;20543;-69
2023/09/14 07:01:34;;;;;;;5.57;3.43;;;21.10;98.00;;;;;;5013663;28;20547;-70
2023/09/14 07:04:01;;;;;;;3.77;2.83;;;21.20;98.00;;;;;;5015246;28;20475;-68
2023/09/14 07:06:30;;;;;;;7.97;3.70;;;21.10;98.00;;;;;;5015154;28;20459;-69
2023/09/14 07:08:57;;;;;;;6.37;3.63;;;21.10;98.00;;;;;;5015181;28;20541;-69
2023/09/14 07:11:25;;;;;;;4.67;3.30;;;21.00;98.00;;;;;;5015160;28;20459;-68
2023/09/14 07:13:54;;;;;;;6.23;3.40;;;21.10;98.00;;;;;;5015130;28;20455;-68
2023/09/14 07:16:21;;;;;;;5.70;3.20;;;21.20;98.00;;;;;;5014045;28;20455;-68
2023/09/14 07:18:48;;;;;;;5.13;3.23;;;21.10;98.00;;;;;;5014681;28;20463;-67
2023/09/14 07:21:15;;;;;;;5.27;3.47;;;21.20;98.00;;;;;;5015009;28;20576;-68
2023/09/14 07:23:43;;;;;;;5.60;3.10;;;20.90;98.00;;;;;;5014582;28;21146;-68
2023/09/14 07:26:10;;;;;;;5.20;3.50;;;20.80;98.00;;;;;;5014285;28;20451;-69
2023/09/14 07:28:42;;;;;;;6.30;3.50;;;20.80;98.00;;;;;;5014710;28;20447;-68
2023/09/14 07:31:10;;;;;;;5.80;3.93;;;20.90;98.00;;;;;;5029804;28;20987;-63
2023/09/14 07:33:37;;;;;;;5.93;3.70;;;21.00;98.00;;;;;;5014441;28;20451;-63
2023/09/14 07:36:04;;;;;;;5.80;3.60;;;20.70;98.00;;;;;;5014314;28;20509;-62
2023/09/14 07:38:31;;;;;;;7.73;4.07;;;20.50;98.00;;;;;;5014404;28;20459;-63
2023/09/14 07:40:58;;;;;;;6.07;3.20;;;20.50;98.00;;;;;;5014064;28;20634;-63
2023/09/14 07:43:26;;;;;;;6.10;3.80;;;20.40;98.00;;;;;;5014382;28;20867;-63
2023/09/14 07:45:57;;;;;;;5.90;3.50;;;20.40;98.00;;;;;;5013996;28;20494;-62
2023/09/14 07:48:24;;;;;;;7.40;3.87;;;20.20;98.00;;;;;;5029388;28;20456;-62
2023/09/14 07:50:52;;;;;;;9.00;3.57;;;20.00;98.00;;;;;;5029353;28;20455;-62
2023/09/14 07:53:19;;;;;;;8.57;3.90;;;19.80;98.00;;;;;;5014132;28;20482;-62
2023/09/14 07:55:52;;;;;;;5.80;3.53;;;19.70;98.00;;;;;;5013859;28;20455;-63
2023/09/14 07:58:25;;;;;;;7.63;3.93;;;19.50;98.00;;;;;;5014020;28;20451;-64
2023/09/14 08:00:52;;;;;;;6.47;4.00;;;19.50;98.00;;;;;;5012404;28;20529;-62
2023/09/14 08:03:21;;;;;;;7.87;4.27;;;19.50;98.00;;;;;;5012554;28;20474;-62
2023/09/14 08:05:50;;;;;;;6.37;4.13;;;19.50;98.00;;;;;;5012601;28;20454;-62
2023/09/14 08:08:21;;;;;;;7.30;4.20;;;19.50;98.00;;;;;;5013579;28;20546;-63
2023/09/14 08:10:51;;;;;;;8.60;4.20;;;19.60;98.00;;;;;;5012555;28;20451;-62
2023/09/14 08:13:18;;;;;;;5.60;3.63;;;19.50;98.00;;;;;;5013602;28;21006;-63
2023/09/14 08:15:46;;;;;;;6.07;3.50;;;19.60;98.00;;;;;;5012826;28;20455;-62
2023/09/14 08:18:13;;;;;;;5.37;3.60;;;19.60;98.00;;;;;;5013716;28;20459;-63
2023/09/14 08:20:43;;;;;;;6.07;3.87;;;19.60;98.00;;;;;;5013495;28;20627;-63
2023/09/14 08:23:12;;;;;;;7.37;4.33;;;19.70;98.00;;;;;;5013641;28;20483;-62
2023/09/14 08:25:43;;;;;;;8.43;4.50;;;19.90;98.00;;;;;;5013537;28;20510;-62
2023/09/14 08:28:11;;;;;;;10.07;4.30;;;19.80;98.00;;;;;;5013245;28;20545;-63
2023/09/14 08:30:38;;;;;;;6.87;4.33;;;19.70;98.00;;;;;;5013364;28;20511;-63
2023/09/14 08:33:05;;;;;;;8.40;4.50;;;19.80;98.00;;;;;;5013444;28;20463;-63
2023/09/14 08:35:34;;;;;;;8.17;4.63;;;19.80;98.00;;;;;;5013513;28;20451;-62
2023/09/14 08:38:03;;;;;;;11.10;5.20;;;19.80;98.00;;;;;;5013316;28;20455;-63
2023/09/14 08:40:31;;;;;;;10.00;5.30;;;19.90;98.00;;;;;;5013164;28;21095;-64
2023/09/14 08:43:00;;;;;;;8.43;4.73;;;19.80;98.00;;;;;;5012293;28;20859;-63
2023/09/14 08:45:30;;;;;;;10.17;4.90;;;19.80;98.00;;;;;;5012317;28;20460;-63
2023/09/14 08:47:59;;;;;;;12.10;4.83;;;19.80;98.00;;;;;;5011811;28;20455;-63
2023/09/14 08:50:27;;;;;;;7.17;4.50;;;19.90;98.00;;;;;;5012525;28;20455;-64
2023/09/14 08:52:55;;;;;;;6.33;3.70;;;20.00;98.00;;;;;;5011377;28;20456;-68
2023/09/14 08:55:25;;;;;;;6.83;3.40;;;20.20;98.00;;;;;;5012463;28;20984;-69
2023/09/14 08:57:54;;;;;;;4.40;3.43;;;20.60;98.00;;;;;;5012486;28;20831;-69
2023/09/14 09:00:22;;;;;;;5.90;3.60;;;21.00;98.00;;;;;;5012347;28;20491;-70
2023/09/14 09:02:52;;;;;;;7.30;3.87;;;21.40;98.00;;;;;;5012511;28;20538;-68
2023/09/14 09:05:20;;;;;;;5.47;3.60;;;21.60;98.00;;;;;;5012178;28;20459;-68
2023/09/14 09:07:50;;;;;;;8.07;4.80;;;21.80;98.00;;;;;;5012302;28;20459;-68
2023/09/14 09:10:21;;;;;;;8.10;4.30;;;21.90;98.00;;;;;;5010731;28;20452;-68
2023/09/14 09:12:51;;;;;;;6.27;4.20;;;21.90;98.00;;;;;;5012088;28;20514;-68
2023/09/14 09:15:18;;;;;;;7.73;4.40;;;21.90;98.00;;;;;;5011885;28;20466;-68
2023/09/14 09:17:46;;;;;;;6.93;4.27;;;22.10;98.00;;;;;;5012273;28;20521;-62
2023/09/14 09:20:16;;;;;;;9.97;5.07;;;22.10;98.00;;;;;;5027062;28;20455;-62
2023/09/14 09:22:44;;;;;;;7.60;4.20;;;22.00;98.00;;;;;;5011994;28;20456;-63
2023/09/14 09:25:12;;;;;;;9.50;5.70;;;21.90;98.00;;;;;;5027004;28;20539;-64
2023/09/14 09:27:40;;;;;;;11.20;4.70;;;21.50;98.00;;;;;;5011888;28;20447;-63
2023/09/14 09:30:10;;;;;;;9.13;5.40;;;20.80;98.00;;;;;;5011975;28;20483;-63
2023/09/14 09:32:40;;;;;;;8.60;4.80;;;20.80;98.00;;;;;;5011464;28;20938;-63
2023/09/14 09:35:21;;;;;;;9.87;4.50;;;20.80;98.00;;;;;;5011994;28;20462;-63
2023/09/14 09:37:49;;;;;;;8.67;4.67;;;20.80;98.00;;;;;;5011722;28;20462;-63
2023/09/14 09:40:17;;;;;;;8.03;4.63;;;20.80;98.00;;;;;;5011350;28;20472;-63
2023/09/14 09:42:45;;;;;;;8.47;4.83;;;20.80;98.00;;;;;;5011652;28;20633;-64
2023/09/14 09:45:14;;;;;;;7.23;4.20;;;20.80;98.00;;;;;;5026612;28;20459;-64
2023/09/14 09:47:42;;;;;;;9.17;4.97;;;20.90;98.00;;;;;;5011556;28;20748;-65
2023/09/14 09:50:11;;;;;;;8.10;4.57;;;20.90;98.00;;;;;;5011572;28;20532;-65
2023/09/14 09:52:43;;;;;;;7.50;4.40;;;20.90;98.00;;;;;;5011125;28;20950;-64
2023/09/14 09:55:18;;;;;;;7.80;4.77;;;21.00;98.00;;;;;;5011916;28;20842;-64
2023/09/14 09:57:52;;;;;;;8.30;4.73;;;21.10;98.00;;;;;;5012286;28;20455;-64
2023/09/14 10:00:22;;;;;;;11.33;4.90;;;21.00;98.00;;;;;;5014392;28;20455;-64
2023/09/14 10:02:53;;;;;;;9.10;4.30;;;21.10;98.00;;;;;;5016206;28;20459;-65
2023/09/14 10:05:28;;;;;;;7.23;4.07;;;21.00;98.00;;;;;;5016144;28;20985;-65
2023/09/14 10:07:56;;;;;;;7.23;4.80;;;21.20;98.00;;;;;;5003978;28;20471;-65
2023/09/14 10:10:25;;;;;;;7.87;5.10;;;21.20;98.00;;;;;;5007934;28;21016;-65
2023/09/14 10:12:54;;;;;;;8.63;4.70;;;21.20;98.00;;;;;;5015900;28;20976;-65
2023/09/14 10:15:25;;;;;;;7.77;4.30;;;21.20;98.00;;;;;;5015972;28;20478;-65
2023/09/14 10:17:55;;;;;;;7.77;4.73;;;21.20;98.00;;;;;;5015333;28;20456;-65
2023/09/14 10:20:23;;;;;;;8.27;4.80;;;21.20;98.00;;;;;;5015619;28;20892;-65
2023/09/14 10:22:50;;;;;;;9.67;4.83;;;21.30;98.00;;;;;;5015737;28;20452;-65
2023/09/14 10:25:19;;;;;;;7.93;4.13;;;21.20;98.00;;;;;;5015618;28;20455;-64
2023/09/14 10:27:46;;;;;;;8.97;4.80;;;21.20;98.00;;;;;;5015642;28;20463;-64
2023/09/14 10:30:18;;;;;;;9.30;4.87;;;21.50;98.00;;;;;;5015827;28;20860;-64
2023/09/14 10:32:49;;;;;;;8.00;4.70;;;21.80;98.00;;;;;;5015700;28;20542;-63
2023/09/14 10:35:17;;;;;;;9.10;4.40;;;22.20;98.00;;;;;;5015755;28;20930;-65
2023/09/14 10:37:47;;;;;;;9.77;4.87;;;22.50;98.00;;;;;;5015512;28;20926;-65
2023/09/14 10:40:15;;;;;;;6.53;3.93;;;23.00;98.00;;;;;;5015190;28;20466;-65
2023/09/14 10:42:43;;;;;;;7.63;4.20;;;23.40;98.00;;;;;;5015236;28;20558;-65
2023/09/14 10:45:11;;;;;;;7.93;4.50;;;23.60;98.00;;;;;;5014189;28;20455;-66
2023/09/14 10:47:43;;;;;;;7.53;4.10;;;23.60;98.00;;;;;;5015256;28;20464;-65
2023/09/14 10:50:12;;;;;;;6.07;3.83;;;23.80;98.00;;;;;;5014839;28;20458;-65
2023/09/14 10:52:40;;;;;;;8.77;4.70;;;24.00;98.00;;;;;;5015039;28;20459;-65
2023/09/14 10:55:09;;;;;;;8.10;4.47;;;24.10;98.00;;;;;;5015092;28;20451;-65
2023/09/14 10:57:39;;;;;;;7.93;4.60;;;24.30;98.00;;;;;;5014906;28;20887;-65
2023/09/14 11:00:08;;;;;;;7.20;4.70;;;24.20;98.00;;;;;;5014836;28;20953;-65
2023/09/14 11:02:57;;;;;;;8.07;4.17;;;24.40;98.00;;;;;;5014767;28;20490;-65
2023/09/14 11:05:27;;;;;;;8.23;4.33;;;24.70;98.00;;;;;;5014572;28;20953;-69
2023/09/14 11:08:00;;;;;;;9.97;4.60;;;24.80;98.00;;;;;;5014755;28;20467;-66
2023/09/14 11:10:28;;;;;;;6.83;4.50;;;24.80;98.00;;;;;;5014267;28;20447;-65
2023/09/14 11:13:28;;;;;;;7.43;4.20;;;25.00;98.00;;;;;;5014435;28;20460;-65
2023/09/14 11:15:58;;;;;;;5.70;4.10;;;25.00;98.00;;;;;;5014111;28;20459;-65
2023/09/14 11:18:36;;;;;;;9.63;4.90;;;25.20;98.00;;;;;;5013468;28;20456;-65
2023/09/14 11:21:05;;;;;;;8.07;4.27;;;25.30;98.00;;;;;;5014593;28;20835;-65
2023/09/14 11:23:36;;;;;;;9.27;4.67;;;25.40;98.00;;;;;;5014380;28;20997;-65
2023/09/14 11:26:04;;;;;;;7.13;4.50;;;25.40;98.00;;;;;;5014448;28;20494;-65
2023/09/14 11:28:33;;;;;;;6.00;3.97;;;25.70;98.00;;;;;;5014509;28;20582;-65
2023/09/14 11:31:02;;;;;;;7.30;4.50;;;25.90;98.00;;;;;;5014736;28;20891;-65
2023/09/14 11:33:33;;;;;;;7.20;4.13;;;26.00;98.00;;;;;;5014369;28;20452;-65
2023/09/14 11:36:01;;;;;;;7.07;4.33;;;26.30;98.00;;;;;;5014541;28;20581;-66
2023/09/14 11:38:30;;;;;;;6.80;4.00;;;26.40;98.00;;;;;;5014397;28;20490;-65
2023/09/14 11:40:57;;;;;;;5.60;4.00;;;26.40;98.00;;;;;;5014169;28;20463;-66
2023/09/14 11:43:28;;;;;;;5.10;3.63;;;26.70;98.00;;;;;;5014326;28;20455;-65
2023/09/14 11:45:58;;;;;;;5.80;3.77;;;27.00;98.00;;;;;;5014244;28;20506;-65
2023/09/14 11:48:29;;;;;;;6.37;3.60;;;27.10;98.00;;;;;;5014425;28;20459;-65
2023/09/14 11:50:57;;;;;;;7.17;4.00;;;27.30;98.00;;;;;;5014250;28;20495;-66
2023/09/14 11:53:25;;;;;;;6.20;4.10;;;27.50;97.40;;;;;;5014285;28;20460;-65
2023/09/14 11:55:54;;;;;;;6.60;3.90;;;27.60;97.80;;;;;;5013639;28;20546;-66
2023/09/14 11:58:24;;;;;;;5.13;3.63;;;27.60;96.80;;;;;;5014262;28;20451;-66
2023/09/14 12:00:52;;;;;;;8.23;4.17;;;27.70;98.00;;;;;;5013244;28;20856;-66
2023/09/14 12:03:19;;;;;;;5.23;4.03;;;27.90;96.30;;;;;;5014083;28;20460;-66
2023/09/14 12:05:47;;;;;;;6.53;3.60;;;27.90;95.30;;;;;;5013469;28;20517;-65
2023/09/14 12:08:16;;;;;;;6.03;3.70;;;28.10;94.20;;;;;;5014007;28;20543;-66
2023/09/14 12:10:44;;;;;;;6.70;3.60;;;28.40;94.90;;;;;;5013766;28;20976;-66
2023/09/14 12:13:14;;;;;;;11.77;4.03;;;28.30;94.70;;;;;;5014276;28;20550;-66
2023/09/14 12:15:43;;;;;;;5.87;3.90;;;28.30;93.50;;;;;;5014081;28;20459;-66
2023/09/14 12:18:11;;;;;;;8.23;3.77;;;28.10;93.20;;;;;;5013324;28;20495;-65
2023/09/14 12:20:42;;;;;;;6.93;4.27;;;28.20;95.30;;;;;;5028949;28;20474;-66
2023/09/14 12:23:12;;;;;;;5.43;3.90;;;28.00;94.30;;;;;;5012664;28;20535;-65
2023/09/14 12:25:40;;;;;;;6.30;4.00;;;28.20;95.60;;;;;;5013404;28;20467;-66
2023/09/14 12:28:10;;;;;;;5.80;3.40;;;28.40;95.70;;;;;;5013541;28;20504;-66
2023/09/14 12:30:41;;;;;;;5.73;3.93;;;28.50;95.10;;;;;;5012935;28;20455;-66
2023/09/14 12:33:10;;;;;;;6.27;3.77;;;28.60;94.90;;;;;;5012873;28;20468;-67
2023/09/14 12:35:37;;;;;;;6.40;3.90;;;28.70;93.80;;;;;;5013377;28;20451;-66
2023/09/14 12:38:05;;;;;;;6.43;3.77;;;28.90;92.00;;;;;;5013099;28;20510;-66
2023/09/14 12:40:35;;;;;;;6.40;3.83;;;28.90;91.30;;;;;;5011739;28;20947;-65
2023/09/14 12:43:03;;;;;;;6.60;3.60;;;28.80;91.90;;;;;;5012377;28;20515;-66
2023/09/14 12:45:33;;;;;;;8.13;4.00;;;29.10;92.30;;;;;;5012965;28;20498;-66
2023/09/14 12:48:04;;;;;;;5.03;3.50;;;29.20;90.70;;;;;;5012925;28;20488;-66
2023/09/14 12:50:34;;;;;;;5.53;3.63;;;29.20;91.20;;;;;;4999058;28;20987;-67
2023/09/14 12:53:08;;;;;;;4.80;3.60;;;29.30;91.40;;;;;;5004360;28;20985;-67